Time;durP1;ratioP1;P1;durP2;ratioP2;P2;SDS_P1;SDS_P2;PMS_P1;PMS_P2;Temp;Humidity;BMP_temperature;BMP_pressure;BME280_temperature;BME280_humidity;BME280_pressure;Samples;Min_cycle;Max_cycle;Signal;HPM_P1;HPM_P2
2023/07/12 00:01:52;;;;;;;8.20;7.40;;;;;;;17.37;100.00;95476.53;5037967;28;20020;-84
2023/07/12 00:04:17;;;;;;;8.13;7.32;;;;;;;17.30;100.00;95524.66;5027389;28;20029;-84
2023/07/12 00:06:43;;;;;;;7.95;7.00;;;;;;;17.45;100.00;95519.25;5040889;28;20032;-83
2023/07/12 00:09:12;;;;;;;8.93;7.00;;;;;;;17.36;100.00;95495.88;5040656;28;20131;-83
2023/07/12 00:11:38;;;;;;;9.35;8.00;;;;;;;17.29;100.00;95474.09;5021891;28;20238;-83
2023/07/12 00:14:03;;;;;;;8.73;7.15;;;;;;;17.21;100.00;95474.28;5031326;28;20383;-83
2023/07/12 00:16:38;;;;;;;9.30;7.70;;;;;;;17.19;100.00;95473.69;5040816;28;20111;-83
2023/07/12 00:19:04;;;;;;;8.18;7.10;;;;;;;17.35;100.00;95470.69;5046662;28;20032;-83
2023/07/12 00:21:30;;;;;;;11.23;7.07;;;;;;;17.38;100.00;95454.56;5020424;28;20453;-83
2023/07/12 00:23:57;;;;;;;8.85;7.82;;;;;;;17.25;100.00;95454.56;5042224;28;20025;-84
2023/07/12 00:26:36;;;;;;;10.25;7.32;;;;;;;17.13;100.00;95450.09;5040929;28;20371;-82
2023/07/12 00:29:04;;;;;;;12.90;7.47;;;;;;;17.15;100.00;95474.25;5009788;28;20130;-83
2023/07/12 00:31:29;;;;;;;9.68;7.80;;;;;;;16.99;100.00;95472.81;5036409;28;20482;-82
2023/07/12 00:33:55;;;;;;;8.40;7.53;;;;;;;16.96;100.00;95499.38;5019518;28;20032;-83
2023/07/12 00:36:24;;;;;;;11.32;7.00;;;;;;;16.93;100.00;95499.78;5032493;28;20029;-84
2023/07/12 00:38:50;;;;;;;10.60;7.55;;;;;;;16.91;100.00;95532.38;5019924;28;20029;-84
2023/07/12 00:41:50;;;;;;;8.15;7.32;;;;;;;16.85;100.00;95587.13;5031069;28;20032;-81
2023/07/12 00:44:33;;;;;;;9.82;7.85;;;;;;;16.80;100.00;95588.69;5022785;28;20036;-82
2023/07/12 00:46:58;;;;;;;7.82;7.05;;;;;;;16.77;100.00;95602.16;5039701;28;20508;-84
2023/07/12 08:21:14;;;;;;;;;;;;;;;;;;;;;
2023/07/12 08:39:40;;;;;;;;;;;;;;;;;;;;;
2023/07/12 08:58:05;;;;;;;;;;;;;;;;;;;;;
2023/07/12 09:08:17;;;;;;;;;;;;;;;;;;;;;
2023/07/12 10:03:44;;;;;;;;;;;;;;;;;;;;;
2023/07/12 10:11:32;;;;;;;;;;;;;;;;;;;;;
2023/07/12 10:14:55;;;;;;;;;;;;;;;;;;;;;
2023/07/12 10:34:30;;;;;;;8.13;5.60;;;;;;;33.12;60.76;95044.38;4861357;29;20587;-79
2023/07/12 10:56:08;;;;;;;;;;;;;;;;;;;;;
2023/07/12 11:02:39;;;;;;;;;;;;;;;;;;;;;
2023/07/12 11:09:11;;;;;;;10.90;5.70;;;;;;;32.97;52.50;95012.53;4937922;28;20047;-78
2023/07/12 11:16:21;;;;;;;;;;;;;;;;;;;;;
2023/07/12 11:20:01;;;;;;;;;;;;;;;;;;;;;
2023/07/12 11:36:42;;;;;;;;;;;;;;;;;;;;;
2023/07/12 11:40:01;;;;;;;;;;;;;;;;;;;;;
2023/07/12 11:46:34;;;;;;;;;;;;;;;;;;;;;
2023/07/12 11:50:04;;;;;;;;;;;;;;;;;;;;;
2023/07/12 11:52:31;;;;;;;11.75;7.28;;;;;;;33.43;64.07;94980.63;4919995;29;20546;-77
2023/07/12 12:05:02;;;;;;;7.22;6.40;;;;;;;33.37;64.04;94961.19;5007402;28;20044;-78
2023/07/12 12:07:37;;;;;;;10.55;6.40;;;;;;;33.34;63.44;94964.50;5020583;28;20017;-77
2023/07/12 12:10:03;;;;;;;8.25;6.82;;;;;;;32.86;59.55;94959.13;5005609;28;20045;-76
2023/07/12 12:12:31;;;;;;;8.18;6.72;;;;;;;33.23;62.65;94955.13;4999688;28;20032;-76
2023/07/12 12:14:56;;;;;;;9.63;6.68;;;;;;;33.32;62.70;94960.53;4995727;28;20558;-78
2023/07/12 12:17:35;;;;;;;6.30;5.80;;;;;;;33.47;63.69;94954.72;4999622;28;20034;-78
2023/07/12 12:20:01;;;;;;;;;;;;;;;33.65;60.27;94948.25;4996050;28;20025;-77
2023/07/12 12:22:26;;;;;;;10.10;6.40;;;;;;;33.61;60.93;94943.84;5019484;28;20508;-78
2023/07/12 12:24:56;;;;;;;8.93;6.43;;;;;;;33.56;57.32;94943.94;5001486;28;20108;-77
2023/07/12 12:27:34;;;;;;;10.77;6.35;;;;;;;33.56;58.57;94939.38;5001108;28;20028;-78
2023/07/12 12:30:12;;;;;;;7.63;6.35;;;;;;;33.53;60.50;94934.63;4999515;28;20083;-77
2023/07/12 12:32:39;;;;;;;9.05;6.60;;;;;;;33.56;60.51;94922.44;5000839;28;20030;-78
2023/07/12 12:35:06;;;;;;;7.80;6.13;;;;;;;33.51;61.80;94925.31;5015831;28;20087;-76
2023/07/12 12:37:32;;;;;;;10.27;6.57;;;;;;;33.22;59.27;94910.59;5017089;28;20026;-77
2023/07/12 12:39:59;;;;;;;9.45;6.70;;;;;;;33.23;59.94;94914.84;4999987;28;20038;-77
2023/07/12 12:42:27;;;;;;;9.15;6.53;;;;;;;33.10;61.24;94920.38;5016113;28;20073;-77
2023/07/12 12:44:54;;;;;;;7.32;6.60;;;;;;;32.93;58.06;94909.53;5002183;28;20033;-76
2023/07/12 12:47:30;;;;;;;7.17;6.50;;;;;;;33.14;63.26;94911.34;4999286;28;20518;-77
2023/07/12 12:49:56;;;;;;;12.75;6.95;;;;;;;33.08;60.25;94912.56;5000825;28;20034;-77
2023/07/12 12:52:29;;;;;;;7.72;6.38;;;;;;;33.26;61.27;94916.13;4999137;28;20148;-77
2023/07/12 12:54:59;;;;;;;6.30;5.80;;;;;;;33.23;58.54;94906.00;5001687;28;20060;-77
2023/07/12 12:57:25;;;;;;;7.03;6.28;;;;;;;33.37;54.78;94903.94;5012410;28;20072;-79
2023/07/12 12:59:51;;;;;;;7.32;5.75;;;;;;;33.24;58.00;94902.19;5001657;28;20110;-77
2023/07/12 13:02:18;;;;;;;6.75;6.03;;;;;;;33.06;59.87;94906.75;5017172;28;20816;-77
2023/07/12 13:04:44;;;;;;;8.43;5.60;;;;;;;33.27;56.96;94906.94;4998786;28;20029;-77
2023/07/12 13:07:20;;;;;;;8.07;6.13;;;;;;;33.12;53.96;94910.09;5000600;28;20029;-78
2023/07/12 13:09:46;;;;;;;6.88;6.00;;;;;;;33.51;58.31;94909.19;4998758;28;20079;-78
2023/07/12 13:12:21;;;;;;;11.70;5.85;;;;;;;33.32;56.08;94910.28;5001521;28;20046;-78
2023/07/12 13:14:47;;;;;;;6.32;5.82;;;;;;;33.33;55.79;94908.38;4999975;28;20557;-78
2023/07/12 13:17:24;;;;;;;6.80;6.10;;;;;;;33.17;52.48;94905.34;5006079;28;20022;-79
2023/07/12 13:19:50;;;;;;;7.00;6.20;;;;;;;33.01;51.43;94912.25;5017901;28;20033;-78
2023/07/12 13:22:26;;;;;;;10.98;6.15;;;;;;;33.19;55.80;94902.38;5012674;28;20033;-77
2023/07/12 13:24:56;;;;;;;9.55;5.78;;;;;;;33.10;53.45;94904.25;5005357;28;20061;-77
2023/07/12 13:27:21;;;;;;;7.20;5.38;;;;;;;33.29;58.54;94905.53;5013478;28;20029;-77
2023/07/12 13:29:48;;;;;;;10.67;5.57;;;;;;;33.22;53.29;94907.09;5018453;28;20457;-77
2023/07/12 13:32:13;;;;;;;6.28;5.68;;;;;;;33.37;60.02;94910.13;5036517;28;20816;-78
2023/07/12 13:34:39;;;;;;;6.53;5.93;;;;;;;33.17;61.25;94910.72;5004531;28;21199;-77
2023/07/12 13:37:05;;;;;;;7.57;5.28;;;;;;;33.12;58.36;94912.78;5049269;28;20411;-77
2023/07/12 13:39:31;;;;;;;6.75;6.03;;;;;;;32.92;58.78;94906.06;5005827;28;20057;-77
2023/07/12 13:41:58;;;;;;;7.93;5.82;;;;;;;33.11;60.10;94903.13;5000407;28;20517;-76
2023/07/12 13:44:24;;;;;;;10.43;5.40;;;;;;;33.27;56.69;94898.88;4985317;28;20487;-77
2023/07/12 13:46:49;;;;;;;6.45;5.85;;;;;;;33.01;56.97;94893.44;5019356;28;20089;-76
2023/07/12 13:49:19;;;;;;;8.25;5.63;;;;;;;33.09;55.48;94895.41;5001120;28;20034;-77
2023/07/12 13:51:46;;;;;;;8.48;6.00;;;;;;;33.07;59.87;94896.78;4999065;28;20045;-78
2023/07/12 13:54:12;;;;;;;6.43;5.75;;;;;;;33.18;64.14;94901.56;5007845;28;20037;-77
2023/07/12 13:56:38;;;;;;;5.93;5.43;;;;;;;33.11;61.33;94897.75;5021866;28;20073;-77
2023/07/12 13:59:04;;;;;;;6.60;5.70;;;;;;;32.76;60.49;94892.28;5019344;28;20482;-77
2023/07/12 14:01:32;;;;;;;8.15;6.30;;;;;;;33.00;58.62;94888.41;5019161;28;20029;-77
2023/07/12 14:03:59;;;;;;;8.07;5.50;;;;;;;33.06;59.70;94892.50;5017242;28;20041;-77
2023/07/12 14:06:28;;;;;;;5.38;4.88;;;;;;;33.26;61.19;94887.38;5025031;28;20029;-79
2023/07/12 14:08:53;;;;;;;6.53;5.93;;;;;;;33.20;60.87;94877.84;5028769;28;20567;-77
2023/07/12 14:11:26;;;;;;;9.70;5.78;;;;;;;33.13;57.03;94893.69;5012823;28;20068;-77
2023/07/12 14:13:52;;;;;;;11.52;5.60;;;;;;;33.00;58.90;94888.41;4998031;28;20487;-79
2023/07/12 14:16:19;;;;;;;7.68;5.57;;;;;;;33.14;58.02;94881.00;5009398;28;20210;-79
2023/07/12 14:18:44;;;;;;;6.45;5.18;;;;;;;33.14;51.97;94870.25;5004336;28;20052;-78
2023/07/12 14:21:14;;;;;;;7.00;5.90;;;;;;;33.18;54.04;94873.91;5037445;28;20499;-77
2023/07/12 14:23:41;;;;;;;11.95;5.90;;;;;;;33.14;57.09;94872.94;5048508;28;20049;-78
2023/07/12 14:26:17;;;;;;;5.72;5.22;;;;;;;33.14;58.51;94872.94;5002919;28;20076;-78
2023/07/12 14:28:44;;;;;;;5.60;5.10;;;;;;;33.06;54.58;94866.44;5008577;28;20030;-78
2023/07/12 14:31:24;;;;;;;6.88;5.47;;;;;;;32.87;54.03;94874.00;5015238;28;20025;-77
2023/07/12 14:33:52;;;;;;;6.10;5.25;;;;;;;33.04;54.28;94863.28;5035142;28;20038;-79
2023/07/12 14:36:20;;;;;;;9.52;6.05;;;;;;;33.04;55.07;94867.88;4999626;28;20107;-78
2023/07/12 14:38:46;;;;;;;6.72;5.82;;;;;;;32.88;60.48;94868.31;5005144;28;20033;-78
2023/07/12 14:41:20;;;;;;;10.43;6.47;;;;;;;33.03;61.96;94858.22;5022190;28;20033;-78
2023/07/12 14:43:46;;;;;;;11.10;5.70;;;;;;;33.12;56.03;94862.53;5015101;28;20715;-80
2023/07/12 14:46:14;;;;;;;7.35;5.65;;;;;;;33.23;58.15;94863.03;5003084;28;20554;-78
2023/07/12 14:48:40;;;;;;;8.77;5.10;;;;;;;33.29;57.09;94865.25;5001454;28;20037;-80
2023/07/12 14:51:13;;;;;;;7.50;4.97;;;;;;;33.23;58.38;94865.72;5030765;28;20048;-78
2023/07/12 14:53:39;;;;;;;6.32;5.53;;;;;;;33.08;55.67;94858.06;5014463;28;20458;-79
2023/07/12 14:56:04;;;;;;;6.82;6.03;;;;;;;33.00;56.94;94853.50;5016898;28;20036;-79
2023/07/12 14:58:30;;;;;;;6.90;6.15;;;;;;;32.97;58.34;94844.19;5020402;28;20105;-79
2023/07/12 15:00:55;;;;;;;6.93;5.55;;;;;;;32.88;54.96;94849.50;5012747;28;20040;-79
2023/07/12 15:03:22;;;;;;;9.70;6.18;;;;;;;32.90;56.71;94846.53;5051014;28;20763;-79
2023/07/12 15:05:49;;;;;;;12.00;5.65;;;;;;;32.94;60.49;94852.84;5032209;28;20482;-80
2023/07/12 15:08:25;;;;;;;5.65;5.13;;;;;;;33.02;55.97;94849.38;5019378;28;20057;-80
2023/07/12 15:10:53;;;;;;;5.57;5.18;;;;;;;33.02;57.59;94852.06;5002985;28;20065;-77
2023/07/12 15:13:18;;;;;;;7.18;5.75;;;;;;;33.05;62.09;94848.75;5015655;28;20039;-81
2023/07/12 15:15:44;;;;;;;6.00;5.50;;;;;;;32.72;66.95;94836.88;5016044;28;20033;-79
2023/07/12 15:18:18;;;;;;;9.55;5.88;;;;;;;32.67;59.47;94837.78;5015680;28;20041;-79
2023/07/12 15:20:47;;;;;;;7.57;5.53;;;;;;;32.50;61.97;94834.22;5002634;28;20062;-79
2023/07/12 15:23:20;;;;;;;6.85;5.70;;;;;;;32.17;76.72;94834.56;5000292;28;20021;-80
2023/07/12 15:25:47;;;;;;;7.03;6.30;;;;;;;32.30;72.85;94827.56;4994412;28;20038;-79
2023/07/12 15:28:13;;;;;;;5.82;5.32;;;;;;;32.33;70.97;94838.44;5036943;28;20025;-79
2023/07/12 15:30:39;;;;;;;7.25;5.70;;;;;;;31.93;76.83;94836.81;5019884;28;20029;-78
2023/07/12 15:33:31;;;;;;;6.72;6.13;;;;;;;31.55;91.04;94836.44;5000949;28;20111;-77
2023/07/12 15:36:02;;;;;;;6.80;6.20;;;;;;;31.66;87.98;94829.72;5004703;28;20413;-77
2023/07/12 15:38:32;;;;;;;6.45;5.85;;;;;;;31.99;78.83;94826.75;5020128;28;20033;-79
2023/07/12 15:41:00;;;;;;;7.07;6.28;;;;;;;32.07;86.71;94821.47;5019187;28;20163;-77
2023/07/12 15:43:28;;;;;;;;;;;;;;;32.17;79.01;94826.53;5016806;28;20034;-79
2023/07/12 15:45:55;;;;;;;6.50;5.90;;;;;;;32.24;88.40;94823.41;5014372;28;19917;-80
2023/07/12 15:48:25;;;;;;;10.85;6.10;;;;;;;32.09;84.57;94816.56;4999823;28;20029;-80
2023/07/12 15:50:53;;;;;;;9.73;6.13;;;;;;;32.13;87.52;94820.22;4999983;28;20038;-79
2023/07/12 15:53:21;;;;;;;6.72;5.93;;;;;;;32.20;93.35;94804.50;4999744;28;20026;-79
2023/07/12 15:55:50;;;;;;;7.15;6.55;;;;;;;31.80;92.11;94794.78;5017763;28;20074;-80
2023/07/12 15:58:20;;;;;;;7.13;6.40;;;;;;;31.85;99.24;94806.16;5013986;28;20079;-79
2023/07/12 16:00:48;;;;;;;8.18;6.90;;;;;;;31.97;100.00;94810.97;5001675;28;20580;-79
2023/07/12 16:03:18;;;;;;;6.70;5.63;;;;;;;31.92;100.00;94811.09;5001141;28;20532;-80
2023/07/12 16:05:44;;;;;;;8.32;6.47;;;;;;;31.98;98.03;94796.44;5017137;28;20084;-80
2023/07/12 16:08:10;;;;;;;8.00;6.60;;;;;;;31.83;100.00;94802.22;5004341;28;20469;-78
2023/07/12 16:10:35;;;;;;;9.38;6.45;;;;;;;31.72;100.00;94806.28;5017982;28;20040;-79
2023/07/12 16:13:02;;;;;;;7.97;6.47;;;;;;;31.62;100.00;94810.00;5009838;28;20034;-80
2023/07/12 16:15:27;;;;;;;8.25;5.97;;;;;;;31.70;98.89;94809.25;4999440;28;20038;-79
2023/07/12 16:17:53;;;;;;;6.13;5.32;;;;;;;31.66;92.77;94807.50;5002726;28;20029;-80
2023/07/12 16:20:19;;;;;;;7.15;5.43;;;;;;;31.49;88.25;94802.78;5001813;28;20026;-80
2023/07/12 16:22:44;;;;;;;5.20;4.80;;;;;;;31.33;77.93;94802.38;5001708;28;20488;-80
2023/07/12 16:25:14;;;;;;;7.38;4.40;;;;;;;31.18;75.92;94805.41;5001224;28;20809;-80
2023/07/12 16:27:42;;;;;;;7.47;4.60;;;;;;;31.02;73.64;94800.72;5005211;28;20069;-80
2023/07/12 16:30:09;;;;;;;13.38;4.10;;;;;;;31.07;70.95;94804.06;5017695;28;20048;-81
2023/07/12 16:32:34;;;;;;;13.18;4.55;;;;;;;30.90;73.52;94811.09;4999106;28;20048;-80
2023/07/12 16:35:00;;;;;;;7.13;3.97;;;;;;;30.69;71.47;94811.56;5001050;28;20045;-81
2023/07/12 16:37:25;;;;;;;4.20;3.50;;;;;;;30.75;63.97;94806.91;5000622;28;20034;-82
2023/07/12 16:39:53;;;;;;;7.90;3.58;;;;;;;30.56;69.84;94811.59;5002288;28;20038;-79
2023/07/12 16:42:21;;;;;;;7.87;3.50;;;;;;;30.54;70.39;94821.78;5017423;28;20022;-80
2023/07/12 16:44:47;;;;;;;;;;;;;;;30.63;72.46;94825.34;5032308;28;20033;-79
2023/07/12 16:47:12;;;;;;;3.30;3.00;;;;;;;30.53;78.74;94822.88;5017201;28;19917;-80
2023/07/12 16:49:37;;;;;;;3.45;3.00;;;;;;;30.36;81.52;94823.44;4998824;28;20419;-81
2023/07/12 16:52:04;;;;;;;8.80;3.30;;;;;;;30.11;87.19;94834.63;5017281;28;20052;-81
2023/07/12 16:54:31;;;;;;;7.18;3.40;;;;;;;30.01;89.66;94832.16;4998590;28;20022;-80
2023/07/12 16:56:57;;;;;;;6.28;3.58;;;;;;;29.85;89.18;94825.47;5011191;28;20037;-82
2023/07/12 16:59:28;;;;;;;6.78;2.47;;;;;;;29.81;77.45;94831.38;5003021;28;20033;-79
2023/07/12 17:01:53;;;;;;;5.68;2.63;;;;;;;29.85;75.40;94830.81;5019370;28;20089;-80
2023/07/12 17:04:19;;;;;;;4.88;2.80;;;;;;;29.65;81.72;94824.72;5020267;28;20128;-80
2023/07/12 17:06:45;;;;;;;5.78;2.70;;;;;;;29.33;84.33;94829.25;5018999;28;20037;-80
2023/07/12 17:09:19;;;;;;;3.25;2.90;;;;;;;29.23;84.72;94830.97;5034389;28;20025;-81
2023/07/12 17:11:44;;;;;;;3.72;2.65;;;;;;;29.18;85.42;94827.59;5042702;28;20079;-81
2023/07/12 17:14:10;;;;;;;5.03;2.65;;;;;;;29.09;83.68;94821.34;5000335;28;20025;-79
2023/07/12 17:16:35;;;;;;;5.10;2.72;;;;;;;29.03;84.63;94833.94;5016736;28;20057;-80
2023/07/12 17:19:02;;;;;;;43.92;9.27;;;;;;;28.83;86.58;94838.78;5050773;28;20116;-81
2023/07/12 17:21:29;;;;;;;9.18;3.00;;;;;;;28.85;83.11;94841.94;5047319;28;20116;-79
2023/07/12 17:23:55;;;;;;;4.32;2.67;;;;;;;28.51;89.79;94834.09;5047156;28;20541;-81
2023/07/12 17:26:20;;;;;;;4.63;2.47;;;;;;;28.20;94.63;94839.75;5049719;28;20037;-80
2023/07/12 17:28:47;;;;;;;3.67;3.10;;;;;;;28.15;90.85;94839.84;5013654;28;20086;-81
2023/07/12 17:31:40;;;;;;;3.45;3.08;;;;;;;27.91;93.87;94854.16;5003724;28;20030;-81
2023/07/12 17:34:38;;;;;;;4.07;3.13;;;;;;;27.79;100.00;94851.88;4989830;28;20438;-79
2023/07/12 17:37:04;;;;;;;6.78;2.75;;;;;;;27.61;100.00;94857.91;5007279;28;20046;-80
2023/07/12 17:39:30;;;;;;;3.17;2.72;;;;;;;27.49;100.00;94852.91;5020508;28;20032;-79
2023/07/12 17:41:56;;;;;;;4.25;2.67;;;;;;;27.42;97.44;94851.63;5000353;28;20502;-82
2023/07/12 17:44:22;;;;;;;3.17;2.90;;;;;;;27.38;92.44;94861.25;5003278;28;20063;-80
2023/07/12 17:46:51;;;;;;;3.83;3.15;;;;;;;27.21;94.96;94862.41;5015180;28;20057;-82
2023/07/12 17:49:17;;;;;;;5.35;3.60;;;;;;;27.05;91.92;94854.81;5002221;28;20064;-80
2023/07/12 17:51:43;;;;;;;7.32;3.58;;;;;;;26.89;96.59;94863.94;5016164;28;20034;-79
2023/07/12 17:54:13;;;;;;;8.15;2.97;;;;;;;26.68;99.82;94860.59;4998085;28;20099;-79
2023/07/12 17:56:38;;;;;;;3.33;2.72;;;;;;;26.41;100.00;94852.97;5024965;28;20112;-78
2023/07/12 17:59:04;;;;;;;3.53;3.22;;;;;;;26.18;100.00;94865.00;5009661;28;20053;-79
2023/07/12 18:01:30;;;;;;;4.60;2.80;;;;;;;26.02;100.00;94857.31;5005288;28;20018;-79
2023/07/12 18:03:56;;;;;;;6.90;2.92;;;;;;;25.84;100.00;94860.53;5002228;28;20423;-80
2023/07/12 18:06:23;;;;;;;3.25;2.63;;;;;;;25.85;100.00;94870.09;5005056;28;20030;-80
2023/07/12 18:08:49;;;;;;;7.30;3.47;;;;;;;25.69;100.00;94870.09;5003197;28;20049;-78
2023/07/12 18:11:26;;;;;;;6.25;2.90;;;;;;;25.61;100.00;94873.31;5041659;28;20515;-79
2023/07/12 18:13:52;;;;;;;3.92;2.60;;;;;;;25.38;100.00;94865.81;5046939;28;20119;-78
2023/07/12 18:16:18;;;;;;;3.63;2.38;;;;;;;25.34;100.00;94874.56;5021306;28;20406;-77
2023/07/12 18:18:43;;;;;;;5.28;2.72;;;;;;;25.36;98.87;94880.44;5005246;28;20105;-77
2023/07/12 18:21:32;;;;;;;4.90;2.30;;;;;;;25.17;100.00;94886.22;5003109;28;20021;-79
2023/07/12 18:23:57;;;;;;;5.75;2.72;;;;;;;25.11;100.00;94887.28;5009504;28;20548;-77
2023/07/12 18:26:24;;;;;;;3.47;2.65;;;;;;;25.15;98.99;94898.94;5019678;28;20041;-79
2023/07/12 18:28:50;;;;;;;5.93;2.60;;;;;;;24.99;100.00;94905.28;5001505;28;20100;-80
2023/07/12 18:31:19;;;;;;;2.33;2.13;;;;;;;24.78;100.00;94903.59;5021219;28;20018;-77
2023/07/12 18:33:45;;;;;;;3.15;2.50;;;;;;;24.67;100.00;94897.47;5021500;28;20037;-78
2023/07/12 18:36:17;;;;;;;4.68;2.55;;;;;;;24.57;100.00;94912.50;5022465;28;20048;-80
2023/07/12 18:38:44;;;;;;;2.83;2.63;;;;;;;24.49;100.00;94913.81;5021114;28;20461;-80
2023/07/12 18:41:19;;;;;;;3.97;2.40;;;;;;;24.44;100.00;94912.97;5005878;28;20036;-81
2023/07/12 18:43:46;;;;;;;4.78;2.20;;;;;;;24.24;100.00;94913.66;5004391;28;20029;-79
2023/07/12 18:46:12;;;;;;;2.75;2.40;;;;;;;24.11;100.00;94924.69;5000854;28;20030;-80
2023/07/12 18:48:37;;;;;;;9.18;2.67;;;;;;;23.81;100.00;94908.59;5047876;28;20060;-84
2023/07/12 18:51:04;;;;;;;3.13;2.42;;;;;;;23.74;100.00;94931.81;5016833;28;20434;-82
2023/07/12 18:53:30;;;;;;;3.10;2.78;;;;;;;23.46;100.00;94911.78;5012271;28;20025;-82
2023/07/12 18:55:55;;;;;;;2.70;2.50;;;;;;;23.63;100.00;94930.16;5012645;28;20025;-82
2023/07/12 18:58:22;;;;;;;4.72;2.90;;;;;;;23.43;100.00;94934.22;5016123;28;20410;-85
2023/07/12 19:00:48;;;;;;;5.90;2.45;;;;;;;23.28;100.00;94947.25;5013441;28;20030;-79
2023/07/12 19:03:32;;;;;;;3.08;2.28;;;;;;;23.22;100.00;94948.25;5001162;28;20115;-79
2023/07/12 19:05:59;;;;;;;3.60;2.90;;;;;;;23.14;100.00;94948.72;5022590;28;20475;-77
2023/07/12 19:08:24;;;;;;;3.83;2.33;;;;;;;23.04;100.00;94948.59;5039253;28;20017;-79
2023/07/12 19:10:50;;;;;;;6.15;3.15;;;;;;;22.92;100.00;94956.66;5002518;28;20423;-79
2023/07/12 19:13:16;;;;;;;4.05;2.75;;;;;;;22.80;100.00;94961.25;5042553;28;20026;-81
2023/07/12 19:15:41;;;;;;;3.63;2.50;;;;;;;22.70;100.00;94963.78;5008604;28;20088;-82
2023/07/12 19:18:08;;;;;;;5.70;2.92;;;;;;;22.52;100.00;94961.41;5008188;28;20491;-82
2023/07/12 19:20:34;;;;;;;4.13;2.88;;;;;;;22.37;100.00;94961.22;5011533;28;20022;-80
2023/07/12 19:22:59;;;;;;;3.08;2.70;;;;;;;22.29;100.00;94959.78;5026341;28;20065;-80
2023/07/12 19:25:26;;;;;;;3.90;2.58;;;;;;;22.22;100.00;94959.16;5008217;28;20076;-80
2023/07/12 19:27:52;;;;;;;4.53;3.08;;;;;;;22.09;100.00;94959.47;5002461;28;20030;-82
2023/07/12 19:30:26;;;;;;;5.05;2.55;;;;;;;22.15;100.00;94971.72;5033353;28;20033;-79
2023/07/12 19:32:52;;;;;;;4.15;3.13;;;;;;;22.20;100.00;94966.50;5001842;28;20088;-79
2023/07/12 19:35:26;;;;;;;3.53;2.80;;;;;;;22.09;100.00;94962.13;5016306;28;20131;-81
2023/07/12 19:37:53;;;;;;;3.75;3.05;;;;;;;21.99;100.00;94965.41;5021697;28;20040;-81
2023/07/12 19:40:19;;;;;;;4.13;3.05;;;;;;;21.88;100.00;94966.28;5034977;28;20502;-81
2023/07/12 19:42:46;;;;;;;5.15;2.80;;;;;;;21.91;100.00;94972.94;5016850;28;20042;-79
2023/07/12 19:45:23;;;;;;;5.40;3.17;;;;;;;21.85;100.00;94971.22;5018160;28;20029;-81
2023/07/12 19:47:53;;;;;;;3.97;3.45;;;;;;;21.95;100.00;94971.41;5016786;28;20499;-77
2023/07/12 19:50:19;;;;;;;5.15;2.90;;;;;;;21.86;100.00;94975.47;5002102;28;20549;-81
2023/07/12 19:52:44;;;;;;;3.42;2.60;;;;;;;21.72;100.00;94979.44;5022583;28;20033;-81
2023/07/12 19:55:20;;;;;;;3.67;3.03;;;;;;;21.84;100.00;94982.81;5016565;28;20029;-80
2023/07/12 19:57:46;;;;;;;7.68;3.10;;;;;;;21.91;100.00;94980.84;5015544;28;20035;-82
2023/07/12 20:00:13;;;;;;;6.50;3.33;;;;;;;21.81;100.00;94972.72;4987782;28;20030;-81
2023/07/12 20:02:39;;;;;;;3.40;2.90;;;;;;;21.92;100.00;94974.53;5034424;28;20066;-80
2023/07/12 20:05:05;;;;;;;3.30;3.00;;;;;;;21.75;100.00;94974.50;4999798;28;20018;-80
2023/07/12 20:07:31;;;;;;;6.43;3.30;;;;;;;21.63;100.00;94973.78;5017845;28;20037;-80
2023/07/12 20:09:56;;;;;;;3.35;3.05;;;;;;;21.64;100.00;94982.50;5017398;28;20504;-80
2023/07/12 20:12:21;;;;;;;5.90;3.28;;;;;;;21.58;100.00;94981.59;5001727;28;20071;-81
2023/07/12 20:14:47;;;;;;;4.90;3.00;;;;;;;21.41;100.00;94978.94;5001308;28;20036;-80
2023/07/12 20:17:12;;;;;;;5.32;3.08;;;;;;;21.47;100.00;94983.25;5015581;28;20030;-80
2023/07/12 20:19:38;;;;;;;4.53;3.08;;;;;;;21.41;100.00;94986.03;5000525;28;20038;-81
2023/07/12 20:22:05;;;;;;;5.43;3.28;;;;;;;21.44;100.00;94996.13;5012360;28;20570;-80
2023/07/12 20:24:31;;;;;;;7.20;3.28;;;;;;;21.45;100.00;94990.59;5017485;28;20319;-80
2023/07/12 20:26:58;;;;;;;7.20;3.28;;;;;;;21.27;100.00;94975.00;5005755;28;20515;-82
2023/07/12 20:29:24;;;;;;;9.75;3.58;;;;;;;21.36;100.00;94996.47;5002289;28;20014;-81
2023/07/12 20:31:50;;;;;;;5.05;3.10;;;;;;;21.23;100.00;95005.47;5017623;28;20025;-81
2023/07/12 20:34:15;;;;;;;5.38;3.63;;;;;;;21.15;100.00;95007.69;4998943;28;20140;-80
2023/07/12 20:36:42;;;;;;;4.07;3.47;;;;;;;21.00;100.00;95014.22;5001079;28;20058;-82
2023/07/12 20:39:08;;;;;;;4.63;3.13;;;;;;;21.00;100.00;95005.50;4999260;28;20022;-81
2023/07/12 20:41:34;;;;;;;5.05;3.97;;;;;;;20.95;100.00;95015.97;5000988;28;20040;-80
2023/07/12 20:44:01;;;;;;;4.82;4.22;;;;;;;20.98;100.00;95007.59;5009813;28;20478;-82
2023/07/12 20:46:27;;;;;;;4.78;3.38;;;;;;;21.03;100.00;95005.03;5000795;28;20419;-81
2023/07/12 20:48:52;;;;;;;5.03;3.13;;;;;;;20.95;100.00;95002.78;5001775;28;20029;-86
2023/07/12 20:51:18;;;;;;;3.78;3.03;;;;;;;20.87;100.00;95005.81;4999500;28;20041;-85
2023/07/12 20:53:48;;;;;;;9.05;3.72;;;;;;;20.89;100.00;95001.91;5000989;28;20479;-79
2023/07/12 20:56:19;;;;;;;5.30;3.50;;;;;;;20.78;100.00;94986.09;5001852;28;20797;-81
2023/07/12 20:58:47;;;;;;;10.38;3.67;;;;;;;20.76;100.00;95006.63;5011390;28;20033;-82
2023/07/12 21:01:16;;;;;;;7.13;3.50;;;;;;;20.70;100.00;95010.19;5031956;28;20057;-80
2023/07/12 21:03:42;;;;;;;4.63;2.88;;;;;;;20.56;100.00;94995.66;5001527;28;20285;-84
2023/07/12 21:06:08;;;;;;;4.57;3.40;;;;;;;20.56;100.00;95009.63;5001466;28;20487;-81
2023/07/12 21:08:35;;;;;;;4.10;3.05;;;;;;;20.44;100.00;95009.63;4999339;28;20467;-81
2023/07/12 21:11:02;;;;;;;4.97;3.67;;;;;;;20.52;100.00;95011.09;5000597;28;20115;-83
2023/07/12 21:13:28;;;;;;;3.80;3.20;;;;;;;20.42;100.00;95016.16;4998366;28;20026;-81
2023/07/12 21:15:57;;;;;;;4.72;3.55;;;;;;;20.46;100.00;95012.84;5000368;28;20592;-81
2023/07/12 21:18:22;;;;;;;7.28;3.15;;;;;;;20.20;100.00;95007.19;5012582;28;20029;-86
2023/07/12 21:20:50;;;;;;;4.05;3.13;;;;;;;20.25;100.00;95031.81;5016905;28;20030;-84
2023/07/12 21:23:15;;;;;;;6.10;4.03;;;;;;;20.34;100.00;95025.19;4999424;28;20136;-82
2023/07/12 21:25:41;;;;;;;4.93;2.88;;;;;;;20.32;100.00;95032.53;4999215;28;20054;-86
2023/07/12 21:28:07;;;;;;;6.57;3.85;;;;;;;20.13;100.00;95028.34;5000511;28;20049;-81
2023/07/12 21:30:33;;;;;;;4.43;3.33;;;;;;;20.19;100.00;95032.72;4999701;28;20076;-81
2023/07/12 21:32:58;;;;;;;6.97;3.70;;;;;;;20.23;100.00;95031.22;5016351;28;20518;-82
2023/07/12 21:35:24;;;;;;;3.60;3.28;;;;;;;20.29;100.00;95032.97;5017761;28;20053;-82
2023/07/12 21:37:49;;;;;;;5.07;3.65;;;;;;;20.18;100.00;95036.38;5010738;28;20032;-81
2023/07/12 21:40:15;;;;;;;5.97;3.60;;;;;;;20.21;100.00;95046.44;4998970;28;20345;-81
2023/07/12 21:42:40;;;;;;;3.85;3.28;;;;;;;20.39;100.00;95051.63;4999253;28;20038;-81
2023/07/12 21:45:06;;;;;;;7.57;3.80;;;;;;;20.45;100.00;95048.06;4999787;28;20458;-80
2023/07/12 21:47:32;;;;;;;4.63;3.95;;;;;;;20.42;100.00;95047.75;4998173;28;20068;-80
2023/07/12 21:49:57;;;;;;;7.35;3.53;;;;;;;20.34;100.00;95040.19;5001612;28;20034;-80
2023/07/12 21:52:23;;;;;;;4.70;3.50;;;;;;;20.14;100.00;95045.75;4998074;28;20459;-81
2023/07/12 21:54:48;;;;;;;4.05;3.60;;;;;;;19.92;100.00;95049.94;5001326;28;20041;-83
2023/07/12 21:57:14;;;;;;;6.30;3.38;;;;;;;19.83;100.00;95054.72;5010787;28;20528;-81
2023/07/12 21:59:43;;;;;;;6.63;3.88;;;;;;;19.94;100.00;95053.94;4999758;28;20026;-84
2023/07/12 22:02:08;;;;;;;4.72;3.10;;;;;;;19.85;100.00;95046.59;5008369;28;20088;-83
2023/07/12 22:04:33;;;;;;;8.45;3.55;;;;;;;19.79;100.00;95052.75;5003487;28;20419;-82
2023/07/12 22:06:59;;;;;;;4.22;3.13;;;;;;;19.75;100.00;95064.75;5001583;28;20026;-82
2023/07/12 22:09:24;;;;;;;5.78;3.78;;;;;;;19.68;100.00;95108.75;5014414;28;20026;-84
2023/07/12 22:11:50;;;;;;;5.70;3.90;;;;;;;19.73;100.00;95148.28;4999887;28;20030;-82
2023/07/12 22:14:16;;;;;;;8.45;3.65;;;;;;;19.79;100.00;95127.19;4999508;28;20072;-80
2023/07/12 22:16:41;;;;;;;5.95;3.97;;;;;;;19.92;100.00;95092.00;4999653;28;20049;-80
2023/07/12 22:19:07;;;;;;;6.30;3.60;;;;;;;19.89;100.00;95087.19;4998490;28;20037;-81
2023/07/12 22:21:32;;;;;;;5.10;3.45;;;;;;;19.86;100.00;95077.13;5032522;28;20120;-83
2023/07/12 22:23:58;;;;;;;4.35;3.92;;;;;;;19.94;100.00;95076.78;5015394;28;20042;-80